sensor_id;sensor_type;location;lat;lon;timestamp;temperature;humidity
33741;DHT22;20065;48.380;10.892;2022-12-18T00:00:45;-3.50;99.90
33741;DHT22;20065;48.380;10.892;2022-12-18T00:03:33;-3.50;99.90
33741;DHT22;20065;48.380;10.892;2022-12-18T00:06:20;-3.40;99.90
33741;DHT22;20065;48.380;10.892;2022-12-18T00:09:07;-3.40;99.90
33741;DHT22;20065;48.380;10.892;2022-12-18T00:11:53;-3.40;99.90
33741;DHT22;20065;48.380;10.892;2022-12-18T00:14:39;-3.40;99.90
33741;DHT22;20065;48.380;10.892;2022-12-18T00:17:29;-3.40;99.90
33741;DHT22;20065;48.380;10.892;2022-12-18T00:20:18;-3.40;99.90
33741;DHT22;20065;48.380;10.892;2022-12-18T00:23:11;-3.30;99.90
33741;DHT22;20065;48.380;10.892;2022-12-18T00:26:02;-3.30;99.90
33741;DHT22;20065;48.380;10.892;2022-12-18T00:28:51;-3.40;99.90
33741;DHT22;20065;48.380;10.892;2022-12-18T00:31:38;-3.40;99.90
33741;DHT22;20065;48.380;10.892;2022-12-18T00:34:24;-3.30;99.90
33741;DHT22;20065;48.380;10.892;2022-12-18T00:37:11;-3.20;99.90
33741;DHT22;20065;48.380;10.892;2022-12-18T00:39:58;-3.20;99.90
33741;DHT22;20065;48.380;10.892;2022-12-18T00:42:44;-3.30;99.90
33741;DHT22;20065;48.380;10.892;2022-12-18T00:45:52;-3.20;99.90
33741;DHT22;20065;48.380;10.892;2022-12-18T00:48:38;-3.20;99.90
33741;DHT22;20065;48.380;10.892;2022-12-18T00:51:24;-3.20;99.90
33741;DHT22;20065;48.380;10.892;2022-12-18T00:54:11;-3.30;99.90
33741;DHT22;20065;48.380;10.892;2022-12-18T00:56:57;-3.40;99.90
33741;DHT22;20065;48.380;10.892;2022-12-18T00:59:44;-3.40;99.90
33741;DHT22;20065;48.380;10.892;2022-12-18T01:02:30;-3.40;99.90
33741;DHT22;20065;48.380;10.892;2022-12-18T01:05:17;-3.40;99.90
33741;DHT22;20065;48.380;10.892;2022-12-18T01:08:19;-3.30;99.90
33741;DHT22;20065;48.380;10.892;2022-12-18T01:11:24;-3.40;99.90
33741;DHT22;20065;48.380;10.892;2022-12-18T01:14:10;-3.50;99.90
33741;DHT22;20065;48.380;10.892;2022-12-18T01:16:57;-3.60;99.90
33741;DHT22;20065;48.380;10.892;2022-12-18T01:19:43;-3.60;99.90
33741;DHT22;20065;48.380;10.892;2022-12-18T01:22:30;-3.60;99.90
33741;DHT22;20065;48.380;10.892;2022-12-18T01:25:16;-3.60;99.90
33741;DHT22;20065;48.380;10.892;2022-12-18T01:28:03;-3.50;99.90
33741;DHT22;20065;48.380;10.892;2022-12-18T01:30:56;-3.40;99.90
33741;DHT22;20065;48.380;10.892;2022-12-18T01:34:04;-3.40;99.90
33741;DHT22;20065;48.380;10.892;2022-12-18T01:37:06;-3.40;99.90
33741;DHT22;20065;48.380;10.892;2022-12-18T01:39:53;-3.40;99.90
33741;DHT22;20065;48.380;10.892;2022-12-18T01:42:40;-3.50;99.90
33741;DHT22;20065;48.380;10.892;2022-12-18T01:45:30;-3.50;99.90
33741;DHT22;20065;48.380;10.892;2022-12-18T01:48:16;-3.60;99.90
33741;DHT22;20065;48.380;10.892;2022-12-18T01:51:03;-3.70;99.90
33741;DHT22;20065;48.380;10.892;2022-12-18T01:53:50;-3.80;99.90
33741;DHT22;20065;48.380;10.892;2022-12-18T01:56:36;-3.80;99.90
33741;DHT22;20065;48.380;10.892;2022-12-18T01:59:23;-3.80;99.90
33741;DHT22;20065;48.380;10.892;2022-12-18T02:02:09;-3.70;99.90
33741;DHT22;20065;48.380;10.892;2022-12-18T02:04:55;-3.70;99.90
33741;DHT22;20065;48.380;10.892;2022-12-18T02:14:31;-3.80;99.90
33741;DHT22;20065;48.380;10.892;2022-12-18T02:17:40;-3.90;99.90
33741;DHT22;20065;48.380;10.892;2022-12-18T02:20:47;-3.90;99.90
33741;DHT22;20065;48.380;10.892;2022-12-18T02:26:57;-3.90;99.90
33741;DHT22;20065;48.380;10.892;2022-12-18T02:29:54;-4.00;99.90
33741;DHT22;20065;48.380;10.892;2022-12-18T02:32:43;-4.00;99.90
33741;DHT22;20065;48.380;10.892;2022-12-18T02:35:31;-4.00;99.90
33741;DHT22;20065;48.380;10.892;2022-12-18T02:38:19;-4.00;99.90
33741;DHT22;20065;48.380;10.892;2022-12-18T02:41:10;-4.10;99.90
33741;DHT22;20065;48.380;10.892;2022-12-18T02:44:08;-4.10;99.90
33741;DHT22;20065;48.380;10.892;2022-12-18T02:46:54;-4.10;99.90
33741;DHT22;20065;48.380;10.892;2022-12-18T02:56:12;-4.10;99.90
33741;DHT22;20065;48.380;10.892;2022-12-18T02:59:16;-4.10;99.90
33741;DHT22;20065;48.380;10.892;2022-12-18T03:02:22;-4.00;99.90
33741;DHT22;20065;48.380;10.892;2022-12-18T03:05:22;-4.00;99.90
33741;DHT22;20065;48.380;10.892;2022-12-18T03:08:17;-4.00;99.90
33741;DHT22;20065;48.380;10.892;2022-12-18T03:11:09;-4.10;99.90
33741;DHT22;20065;48.380;10.892;2022-12-18T03:13:57;-4.10;99.90
33741;DHT22;20065;48.380;10.892;2022-12-18T03:16:44;-4.10;99.90
33741;DHT22;20065;48.380;10.892;2022-12-18T03:19:32;-4.10;99.90
33741;DHT22;20065;48.380;10.892;2022-12-18T03:22:21;-4.00;99.90
33741;DHT22;20065;48.380;10.892;2022-12-18T03:25:13;-4.10;99.90
33741;DHT22;20065;48.380;10.892;2022-12-18T03:28:02;-4.00;99.90
33741;DHT22;20065;48.380;10.892;2022-12-18T03:30:56;-4.00;99.90
33741;DHT22;20065;48.380;10.892;2022-12-18T03:34:04;-3.90;99.90
33741;DHT22;20065;48.380;10.892;2022-12-18T03:36:59;-3.90;99.90
33741;DHT22;20065;48.380;10.892;2022-12-18T03:39:48;-3.90;99.90
33741;DHT22;20065;48.380;10.892;2022-12-18T03:45:41;-3.90;99.90
33741;DHT22;20065;48.380;10.892;2022-12-18T03:48:31;-3.90;99.90
33741;DHT22;20065;48.380;10.892;2022-12-18T03:54:15;-3.90;99.90
33741;DHT22;20065;48.380;10.892;2022-12-18T03:57:17;-3.90;99.90
33741;DHT22;20065;48.380;10.892;2022-12-18T04:00:13;-3.90;99.90
33741;DHT22;20065;48.380;10.892;2022-12-18T04:03:01;-3.90;99.90
33741;DHT22;20065;48.380;10.892;2022-12-18T04:05:58;-3.90;99.90
33741;DHT22;20065;48.380;10.892;2022-12-18T04:08:47;-3.90;99.90
33741;DHT22;20065;48.380;10.892;2022-12-18T04:11:36;-3.90;99.90
33741;DHT22;20065;48.380;10.892;2022-12-18T04:14:24;-3.80;99.90
33741;DHT22;20065;48.380;10.892;2022-12-18T04:17:14;-3.80;99.90
33741;DHT22;20065;48.380;10.892;2022-12-18T04:20:00;-3.80;99.90
33741;DHT22;20065;48.380;10.892;2022-12-18T04:22:47;-3.70;99.90
33741;DHT22;20065;48.380;10.892;2022-12-18T04:25:33;-3.70;99.90
33741;DHT22;20065;48.380;10.892;2022-12-18T04:28:30;-3.80;99.90
33741;DHT22;20065;48.380;10.892;2022-12-18T04:31:16;-3.90;99.90
33741;DHT22;20065;48.380;10.892;2022-12-18T04:34:03;-3.80;99.90
33741;DHT22;20065;48.380;10.892;2022-12-18T04:36:55;-3.80;99.90
33741;DHT22;20065;48.380;10.892;2022-12-18T04:39:42;-3.80;99.90
33741;DHT22;20065;48.380;10.892;2022-12-18T04:42:35;-3.80;99.90
33741;DHT22;20065;48.380;10.892;2022-12-18T04:45:21;-3.80;99.90
33741;DHT22;20065;48.380;10.892;2022-12-18T04:48:08;-3.80;99.90
33741;DHT22;20065;48.380;10.892;2022-12-18T04:50:54;-3.80;99.90
33741;DHT22;20065;48.380;10.892;2022-12-18T04:53:40;-3.80;99.90
33741;DHT22;20065;48.380;10.892;2022-12-18T04:56:26;-3.90;99.90
33741;DHT22;20065;48.380;10.892;2022-12-18T04:59:12;-3.90;99.90
33741;DHT22;20065;48.380;10.892;2022-12-18T05:01:59;-3.90;99.90
33741;DHT22;20065;48.380;10.892;2022-12-18T05:04:45;-3.90;99.90
33741;DHT22;20065;48.380;10.892;2022-12-18T05:07:31;-4.00;99.90
33741;DHT22;20065;48.380;10.892;2022-12-18T05:10:17;-4.00;99.90
33741;DHT22;20065;48.380;10.892;2022-12-18T05:13:03;-4.10;99.90
33741;DHT22;20065;48.380;10.892;2022-12-18T05:15:53;-4.10;99.90
33741;DHT22;20065;48.380;10.892;2022-12-18T05:18:39;-4.10;99.90
33741;DHT22;20065;48.380;10.892;2022-12-18T05:21:26;-4.20;99.90
33741;DHT22;20065;48.380;10.892;2022-12-18T05:24:12;-4.20;99.90
33741;DHT22;20065;48.380;10.892;2022-12-18T05:26:58;-4.20;99.90
33741;DHT22;20065;48.380;10.892;2022-12-18T05:29:44;-4.10;99.90
33741;DHT22;20065;48.380;10.892;2022-12-18T05:32:30;-4.10;99.90
33741;DHT22;20065;48.380;10.892;2022-12-18T05:35:16;-4.00;99.90
33741;DHT22;20065;48.380;10.892;2022-12-18T05:38:03;-4.00;99.90
33741;DHT22;20065;48.380;10.892;2022-12-18T05:40:49;-4.10;99.90
33741;DHT22;20065;48.380;10.892;2022-12-18T05:43:37;-4.10;99.90
33741;DHT22;20065;48.380;10.892;2022-12-18T05:46:24;-4.10;99.90
33741;DHT22;20065;48.380;10.892;2022-12-18T05:49:10;-4.10;99.90
33741;DHT22;20065;48.380;10.892;2022-12-18T05:51:56;-4.00;99.90
33741;DHT22;20065;48.380;10.892;2022-12-18T05:54:42;-4.10;99.90
33741;DHT22;20065;48.380;10.892;2022-12-18T05:57:28;-4.10;99.90
33741;DHT22;20065;48.380;10.892;2022-12-18T06:00:15;-4.00;99.90
33741;DHT22;20065;48.380;10.892;2022-12-18T06:03:01;-4.00;99.90
33741;DHT22;20065;48.380;10.892;2022-12-18T06:05:48;-4.00;99.90
33741;DHT22;20065;48.380;10.892;2022-12-18T06:08:34;-4.10;99.90
33741;DHT22;20065;48.380;10.892;2022-12-18T06:11:22;-4.10;99.90
33741;DHT22;20065;48.380;10.892;2022-12-18T06:14:09;-4.00;99.90
33741;DHT22;20065;48.380;10.892;2022-12-18T06:16:55;-4.00;99.90
33741;DHT22;20065;48.380;10.892;2022-12-18T06:19:42;-3.90;99.90
33741;DHT22;20065;48.380;10.892;2022-12-18T06:22:30;-3.90;99.90
33741;DHT22;20065;48.380;10.892;2022-12-18T06:25:16;-4.00;99.90
33741;DHT22;20065;48.380;10.892;2022-12-18T06:28:02;-4.00;99.90
33741;DHT22;20065;48.380;10.892;2022-12-18T06:30:49;-4.10;99.90
33741;DHT22;20065;48.380;10.892;2022-12-18T06:33:35;-4.10;99.90
33741;DHT22;20065;48.380;10.892;2022-12-18T06:36:22;-4.00;99.90
33741;DHT22;20065;48.380;10.892;2022-12-18T06:39:08;-3.90;99.90
33741;DHT22;20065;48.380;10.892;2022-12-18T06:41:57;-3.80;99.90
33741;DHT22;20065;48.380;10.892;2022-12-18T06:44:43;-3.70;99.90
33741;DHT22;20065;48.380;10.892;2022-12-18T06:47:29;-3.80;99.90
33741;DHT22;20065;48.380;10.892;2022-12-18T06:50:16;-3.80;99.90
33741;DHT22;20065;48.380;10.892;2022-12-18T06:53:02;-3.80;99.90
33741;DHT22;20065;48.380;10.892;2022-12-18T06:55:48;-3.80;99.90
33741;DHT22;20065;48.380;10.892;2022-12-18T06:58:34;-3.70;99.90
33741;DHT22;20065;48.380;10.892;2022-12-18T07:01:22;-3.70;99.90
33741;DHT22;20065;48.380;10.892;2022-12-18T07:04:08;-3.60;99.90
33741;DHT22;20065;48.380;10.892;2022-12-18T07:06:54;-3.60;99.90
33741;DHT22;20065;48.380;10.892;2022-12-18T07:09:40;-3.70;99.90
33741;DHT22;20065;48.380;10.892;2022-12-18T07:12:27;-3.60;99.90
33741;DHT22;20065;48.380;10.892;2022-12-18T07:15:13;-3.60;99.90
33741;DHT22;20065;48.380;10.892;2022-12-18T07:17:59;-3.60;99.90
33741;DHT22;20065;48.380;10.892;2022-12-18T07:20:46;-3.60;99.90
33741;DHT22;20065;48.380;10.892;2022-12-18T07:23:33;-3.60;99.90
33741;DHT22;20065;48.380;10.892;2022-12-18T07:26:21;-3.60;99.90
33741;DHT22;20065;48.380;10.892;2022-12-18T07:29:07;-3.50;99.90
33741;DHT22;20065;48.380;10.892;2022-12-18T07:31:53;-3.60;99.90
33741;DHT22;20065;48.380;10.892;2022-12-18T07:34:40;-3.70;99.90
33741;DHT22;20065;48.380;10.892;2022-12-18T07:37:26;-3.60;99.90
33741;DHT22;20065;48.380;10.892;2022-12-18T07:40:12;-3.60;99.90
33741;DHT22;20065;48.380;10.892;2022-12-18T07:42:58;-3.70;99.90
33741;DHT22;20065;48.380;10.892;2022-12-18T07:45:44;-3.70;99.90
33741;DHT22;20065;48.380;10.892;2022-12-18T07:48:31;-3.70;99.90
33741;DHT22;20065;48.380;10.892;2022-12-18T07:51:18;-3.60;99.90
33741;DHT22;20065;48.380;10.892;2022-12-18T07:54:04;-3.70;99.90
33741;DHT22;20065;48.380;10.892;2022-12-18T07:56:51;-3.60;99.90
33741;DHT22;20065;48.380;10.892;2022-12-18T07:59:37;-3.60;99.90
33741;DHT22;20065;48.380;10.892;2022-12-18T08:02:24;-3.50;99.90
33741;DHT22;20065;48.380;10.892;2022-12-18T08:05:10;-3.50;99.90
33741;DHT22;20065;48.380;10.892;2022-12-18T08:07:56;-3.50;99.90
33741;DHT22;20065;48.380;10.892;2022-12-18T08:10:44;-3.40;99.90
33741;DHT22;20065;48.380;10.892;2022-12-18T08:13:30;-3.40;99.90
33741;DHT22;20065;48.380;10.892;2022-12-18T08:16:16;-3.30;99.90
33741;DHT22;20065;48.380;10.892;2022-12-18T08:19:03;-3.30;99.90
33741;DHT22;20065;48.380;10.892;2022-12-18T08:21:49;-3.20;99.90
33741;DHT22;20065;48.380;10.892;2022-12-18T08:24:35;-3.20;99.90
33741;DHT22;20065;48.380;10.892;2022-12-18T08:27:21;-3.20;99.90
33741;DHT22;20065;48.380;10.892;2022-12-18T08:30:08;-3.30;99.90
33741;DHT22;20065;48.380;10.892;2022-12-18T08:32:55;-3.20;99.90
33741;DHT22;20065;48.380;10.892;2022-12-18T08:35:41;-3.20;99.90
33741;DHT22;20065;48.380;10.892;2022-12-18T08:38:27;-3.20;99.90
33741;DHT22;20065;48.380;10.892;2022-12-18T08:41:15;-3.10;99.90
33741;DHT22;20065;48.380;10.892;2022-12-18T08:44:02;-3.10;99.90
33741;DHT22;20065;48.380;10.892;2022-12-18T08:47:07;-2.90;99.90
33741;DHT22;20065;48.380;10.892;2022-12-18T08:49:53;-2.80;99.90
33741;DHT22;20065;48.380;10.892;2022-12-18T08:52:39;-2.90;99.90
33741;DHT22;20065;48.380;10.892;2022-12-18T08:55:26;-2.90;99.90
33741;DHT22;20065;48.380;10.892;2022-12-18T08:58:12;-2.90;99.90
33741;DHT22;20065;48.380;10.892;2022-12-18T09:01:06;-2.90;99.90
33741;DHT22;20065;48.380;10.892;2022-12-18T09:03:53;-2.80;99.90
33741;DHT22;20065;48.380;10.892;2022-12-18T09:06:39;-3.00;99.90
33741;DHT22;20065;48.380;10.892;2022-12-18T09:09:25;-3.10;99.90
33741;DHT22;20065;48.380;10.892;2022-12-18T09:12:12;-3.10;99.90
33741;DHT22;20065;48.380;10.892;2022-12-18T09:14:58;-3.20;99.90
33741;DHT22;20065;48.380;10.892;2022-12-18T09:17:45;-3.20;99.90
33741;DHT22;20065;48.380;10.892;2022-12-18T09:20:31;-3.30;99.90
33741;DHT22;20065;48.380;10.892;2022-12-18T09:23:17;-3.30;99.90
33741;DHT22;20065;48.380;10.892;2022-12-18T09:26:03;-3.20;99.90
33741;DHT22;20065;48.380;10.892;2022-12-18T09:28:50;-3.10;99.90
33741;DHT22;20065;48.380;10.892;2022-12-18T09:31:36;-3.00;99.90
33741;DHT22;20065;48.380;10.892;2022-12-18T09:34:23;-2.90;99.90
33741;DHT22;20065;48.380;10.892;2022-12-18T09:37:10;-2.90;99.90
33741;DHT22;20065;48.380;10.892;2022-12-18T09:39:56;-2.90;99.90
33741;DHT22;20065;48.380;10.892;2022-12-18T09:42:46;-2.80;99.90
33741;DHT22;20065;48.380;10.892;2022-12-18T09:45:44;-2.90;99.90
33741;DHT22;20065;48.380;10.892;2022-12-18T09:48:35;-2.90;99.90
33741;DHT22;20065;48.380;10.892;2022-12-18T09:51:32;-2.80;99.90
33741;DHT22;20065;48.380;10.892;2022-12-18T09:54:29;-2.80;99.90
33741;DHT22;20065;48.380;10.892;2022-12-18T09:57:21;-2.70;99.90
33741;DHT22;20065;48.380;10.892;2022-12-18T10:00:20;-2.70;99.90
33741;DHT22;20065;48.380;10.892;2022-12-18T10:03:14;-2.50;99.90
33741;DHT22;20065;48.380;10.892;2022-12-18T10:06:32;-2.50;99.90
33741;DHT22;20065;48.380;10.892;2022-12-18T10:09:32;-2.50;99.90
33741;DHT22;20065;48.380;10.892;2022-12-18T10:15:19;-2.50;99.90
33741;DHT22;20065;48.380;10.892;2022-12-18T10:20:56;-2.40;99.90
33741;DHT22;20065;48.380;10.892;2022-12-18T10:26:52;-2.40;99.90
33741;DHT22;20065;48.380;10.892;2022-12-18T10:29:38;-2.50;99.90
33741;DHT22;20065;48.380;10.892;2022-12-18T10:32:27;-2.50;99.90
33741;DHT22;20065;48.380;10.892;2022-12-18T10:35:25;-2.60;99.90
33741;DHT22;20065;48.380;10.892;2022-12-18T10:41:32;-2.70;99.90
33741;DHT22;20065;48.380;10.892;2022-12-18T10:44:18;-2.60;99.90
33741;DHT22;20065;48.380;10.892;2022-12-18T10:47:14;-2.50;99.90
33741;DHT22;20065;48.380;10.892;2022-12-18T10:53:24;-2.40;99.90
33741;DHT22;20065;48.380;10.892;2022-12-18T10:56:11;-2.30;99.90
33741;DHT22;20065;48.380;10.892;2022-12-18T10:59:12;-2.30;99.90
33741;DHT22;20065;48.380;10.892;2022-12-18T11:08:20;-1.90;99.90
33741;DHT22;20065;48.380;10.892;2022-12-18T11:11:36;-1.90;99.90
33741;DHT22;20065;48.380;10.892;2022-12-18T11:14:33;-1.70;99.90
33741;DHT22;20065;48.380;10.892;2022-12-18T11:20:34;-1.50;99.90
33741;DHT22;20065;48.380;10.892;2022-12-18T11:23:22;-1.50;99.90
33741;DHT22;20065;48.380;10.892;2022-12-18T11:26:09;-1.50;99.90
33741;DHT22;20065;48.380;10.892;2022-12-18T11:29:10;-1.50;99.90
33741;DHT22;20065;48.380;10.892;2022-12-18T11:35:50;-1.40;99.90
33741;DHT22;20065;48.380;10.892;2022-12-18T11:38:39;-1.40;99.90
33741;DHT22;20065;48.380;10.892;2022-12-18T11:45:15;-1.50;99.90
33741;DHT22;20065;48.380;10.892;2022-12-18T11:48:22;-1.70;99.90
33741;DHT22;20065;48.380;10.892;2022-12-18T11:51:21;-1.70;99.90
33741;DHT22;20065;48.380;10.892;2022-12-18T11:54:16;-1.70;99.90
33741;DHT22;20065;48.380;10.892;2022-12-18T12:00:19;-1.70;99.90
33741;DHT22;20065;48.380;10.892;2022-12-18T12:06:49;-1.50;99.90
33741;DHT22;20065;48.380;10.892;2022-12-18T12:21:43;-1.40;99.90
33741;DHT22;20065;48.380;10.892;2022-12-18T12:24:36;-1.50;99.90
33741;DHT22;20065;48.380;10.892;2022-12-18T12:33:37;-1.80;99.90
33741;DHT22;20065;48.380;10.892;2022-12-18T12:40:13;-1.70;99.90
33741;DHT22;20065;48.380;10.892;2022-12-18T12:43:44;-1.60;99.90
33741;DHT22;20065;48.380;10.892;2022-12-18T12:46:39;-1.60;99.90
33741;DHT22;20065;48.380;10.892;2022-12-18T12:49:30;-1.60;99.90
33741;DHT22;20065;48.380;10.892;2022-12-18T12:52:37;-1.60;99.90
33741;DHT22;20065;48.380;10.892;2022-12-18T12:55:28;-1.70;99.90
33741;DHT22;20065;48.380;10.892;2022-12-18T13:13:08;-2.10;99.90
33741;DHT22;20065;48.380;10.892;2022-12-18T13:16:06;-2.00;99.90
33741;DHT22;20065;48.380;10.892;2022-12-18T13:18:54;-2.00;99.90
33741;DHT22;20065;48.380;10.892;2022-12-18T13:21:53;-2.00;99.90
33741;DHT22;20065;48.380;10.892;2022-12-18T13:24:39;-2.10;99.90
33741;DHT22;20065;48.380;10.892;2022-12-18T13:36:33;-2.30;99.90
33741;DHT22;20065;48.380;10.892;2022-12-18T13:44:54;-2.50;99.90
33741;DHT22;20065;48.380;10.892;2022-12-18T13:47:43;-2.50;99.90
33741;DHT22;20065;48.380;10.892;2022-12-18T13:50:30;-2.50;99.90
33741;DHT22;20065;48.380;10.892;2022-12-18T13:53:28;-2.40;99.90
33741;DHT22;20065;48.380;10.892;2022-12-18T13:56:17;-2.40;99.90
33741;DHT22;20065;48.380;10.892;2022-12-18T14:02:15;-2.40;99.90
33741;DHT22;20065;48.380;10.892;2022-12-18T14:05:01;-2.50;99.90
33741;DHT22;20065;48.380;10.892;2022-12-18T14:07:48;-2.50;99.90
33741;DHT22;20065;48.380;10.892;2022-12-18T14:10:35;-2.40;99.90
33741;DHT22;20065;48.380;10.892;2022-12-18T14:13:28;-2.40;99.90
33741;DHT22;20065;48.380;10.892;2022-12-18T14:16:16;-2.40;99.90
33741;DHT22;20065;48.380;10.892;2022-12-18T14:19:02;-2.50;99.90
33741;DHT22;20065;48.380;10.892;2022-12-18T14:21:49;-2.50;99.90
33741;DHT22;20065;48.380;10.892;2022-12-18T14:24:36;-2.40;99.90
33741;DHT22;20065;48.380;10.892;2022-12-18T14:27:25;-2.40;99.90
33741;DHT22;20065;48.380;10.892;2022-12-18T14:35:59;-2.50;99.90
33741;DHT22;20065;48.380;10.892;2022-12-18T14:38:51;-2.60;99.90
33741;DHT22;20065;48.380;10.892;2022-12-18T14:41:39;-2.50;99.90
33741;DHT22;20065;48.380;10.892;2022-12-18T14:44:25;-2.60;99.90
33741;DHT22;20065;48.380;10.892;2022-12-18T14:47:18;-2.70;99.90
33741;DHT22;20065;48.380;10.892;2022-12-18T14:50:16;-2.70;99.90
33741;DHT22;20065;48.380;10.892;2022-12-18T14:53:02;-2.80;99.90
33741;DHT22;20065;48.380;10.892;2022-12-18T14:55:49;-2.80;99.90
33741;DHT22;20065;48.380;10.892;2022-12-18T14:58:36;-2.90;99.90
33741;DHT22;20065;48.380;10.892;2022-12-18T15:01:38;-3.10;99.90
33741;DHT22;20065;48.380;10.892;2022-12-18T15:04:35;-3.20;99.90
33741;DHT22;20065;48.380;10.892;2022-12-18T15:07:23;-3.20;99.90
33741;DHT22;20065;48.380;10.892;2022-12-18T15:10:11;-3.20;99.90
33741;DHT22;20065;48.380;10.892;2022-12-18T15:15:47;-3.20;99.90
33741;DHT22;20065;48.380;10.892;2022-12-18T15:18:35;-3.10;99.90
33741;DHT22;20065;48.380;10.892;2022-12-18T15:21:27;-3.20;99.90
33741;DHT22;20065;48.380;10.892;2022-12-18T15:24:26;-3.40;99.90
33741;DHT22;20065;48.380;10.892;2022-12-18T15:27:44;-3.40;99.90
33741;DHT22;20065;48.380;10.892;2022-12-18T15:30:30;-3.40;99.90
33741;DHT22;20065;48.380;10.892;2022-12-18T15:33:24;-3.30;99.90
33741;DHT22;20065;48.380;10.892;2022-12-18T15:36:13;-3.40;99.90
33741;DHT22;20065;48.380;10.892;2022-12-18T15:39:00;-3.50;99.90
33741;DHT22;20065;48.380;10.892;2022-12-18T15:41:46;-3.60;99.90
33741;DHT22;20065;48.380;10.892;2022-12-18T15:44:51;-3.60;99.90
33741;DHT22;20065;48.380;10.892;2022-12-18T15:47:38;-3.50;99.90
33741;DHT22;20065;48.380;10.892;2022-12-18T15:50:24;-3.40;99.90
33741;DHT22;20065;48.380;10.892;2022-12-18T15:53:10;-3.40;99.90
33741;DHT22;20065;48.380;10.892;2022-12-18T15:55:57;-3.40;99.90
33741;DHT22;20065;48.380;10.892;2022-12-18T15:59:04;-3.40;99.90
33741;DHT22;20065;48.380;10.892;2022-12-18T16:01:54;-3.40;99.90
33741;DHT22;20065;48.380;10.892;2022-12-18T16:04:41;-3.40;99.90
33741;DHT22;20065;48.380;10.892;2022-12-18T16:07:27;-3.40;99.90
33741;DHT22;20065;48.380;10.892;2022-12-18T16:10:17;-3.40;99.90
33741;DHT22;20065;48.380;10.892;2022-12-18T16:13:03;-3.40;99.90
33741;DHT22;20065;48.380;10.892;2022-12-18T16:15:49;-3.40;99.90
33741;DHT22;20065;48.380;10.892;2022-12-18T16:18:35;-3.40;99.90
33741;DHT22;20065;48.380;10.892;2022-12-18T16:21:22;-3.40;99.90
33741;DHT22;20065;48.380;10.892;2022-12-18T16:24:29;-3.50;99.90
33741;DHT22;20065;48.380;10.892;2022-12-18T16:27:16;-3.50;99.90
33741;DHT22;20065;48.380;10.892;2022-12-18T16:30:03;-3.50;99.90
33741;DHT22;20065;48.380;10.892;2022-12-18T16:32:49;-3.40;99.90
33741;DHT22;20065;48.380;10.892;2022-12-18T16:35:36;-3.30;99.90
33741;DHT22;20065;48.380;10.892;2022-12-18T16:38:22;-3.30;99.90
33741;DHT22;20065;48.380;10.892;2022-12-18T16:41:18;-3.30;99.90
33741;DHT22;20065;48.380;10.892;2022-12-18T16:44:17;-3.30;99.90
33741;DHT22;20065;48.380;10.892;2022-12-18T16:47:03;-3.30;99.90
33741;DHT22;20065;48.380;10.892;2022-12-18T16:49:51;-3.20;99.90
33741;DHT22;20065;48.380;10.892;2022-12-18T16:52:38;-3.20;99.90
33741;DHT22;20065;48.380;10.892;2022-12-18T16:55:24;-3.30;99.90
33741;DHT22;20065;48.380;10.892;2022-12-18T16:58:11;-3.30;99.90
33741;DHT22;20065;48.380;10.892;2022-12-18T17:00:57;-3.30;99.90
33741;DHT22;20065;48.380;10.892;2022-12-18T17:03:43;-3.40;99.90
33741;DHT22;20065;48.380;10.892;2022-12-18T17:06:32;-3.40;99.90
33741;DHT22;20065;48.380;10.892;2022-12-18T17:09:19;-3.30;99.90
33741;DHT22;20065;48.380;10.892;2022-12-18T17:12:12;-3.30;99.90
33741;DHT22;20065;48.380;10.892;2022-12-18T17:14:58;-3.20;99.90
33741;DHT22;20065;48.380;10.892;2022-12-18T17:17:44;-3.20;99.90
33741;DHT22;20065;48.380;10.892;2022-12-18T17:20:32;-3.30;99.90
33741;DHT22;20065;48.380;10.892;2022-12-18T17:23:20;-3.20;99.90
33741;DHT22;20065;48.380;10.892;2022-12-18T17:26:18;-3.20;99.90
33741;DHT22;20065;48.380;10.892;2022-12-18T17:29:10;-3.20;99.90
33741;DHT22;20065;48.380;10.892;2022-12-18T17:31:57;-3.30;99.90
33741;DHT22;20065;48.380;10.892;2022-12-18T17:34:44;-3.30;99.90
33741;DHT22;20065;48.380;10.892;2022-12-18T17:37:40;-3.30;99.90
33741;DHT22;20065;48.380;10.892;2022-12-18T17:40:37;-3.30;99.90
33741;DHT22;20065;48.380;10.892;2022-12-18T17:43:26;-3.30;99.90
33741;DHT22;20065;48.380;10.892;2022-12-18T17:46:20;-3.30;99.90
33741;DHT22;20065;48.380;10.892;2022-12-18T17:49:12;-3.40;99.90
33741;DHT22;20065;48.380;10.892;2022-12-18T17:52:09;-3.40;99.90
33741;DHT22;20065;48.380;10.892;2022-12-18T17:54:55;-3.50;99.90
33741;DHT22;20065;48.380;10.892;2022-12-18T17:57:45;-3.50;99.90
33741;DHT22;20065;48.380;10.892;2022-12-18T18:00:32;-3.50;99.90
33741;DHT22;20065;48.380;10.892;2022-12-18T18:03:18;-3.50;99.90
33741;DHT22;20065;48.380;10.892;2022-12-18T18:06:14;-3.50;99.90
33741;DHT22;20065;48.380;10.892;2022-12-18T18:09:00;-3.60;99.90
33741;DHT22;20065;48.380;10.892;2022-12-18T18:11:46;-3.60;99.90
33741;DHT22;20065;48.380;10.892;2022-12-18T18:14:51;-3.60;99.90
33741;DHT22;20065;48.380;10.892;2022-12-18T18:17:37;-3.50;99.90
33741;DHT22;20065;48.380;10.892;2022-12-18T18:20:23;-3.50;99.90
33741;DHT22;20065;48.380;10.892;2022-12-18T18:23:10;-3.50;99.90
33741;DHT22;20065;48.380;10.892;2022-12-18T18:26:02;-3.50;99.90
33741;DHT22;20065;48.380;10.892;2022-12-18T18:28:48;-3.40;99.90
33741;DHT22;20065;48.380;10.892;2022-12-18T18:31:35;-3.40;99.90
33741;DHT22;20065;48.380;10.892;2022-12-18T18:34:23;-3.40;99.90
33741;DHT22;20065;48.380;10.892;2022-12-18T18:37:10;-3.50;99.90
33741;DHT22;20065;48.380;10.892;2022-12-18T18:39:57;-3.50;99.90
33741;DHT22;20065;48.380;10.892;2022-12-18T18:42:43;-3.40;99.90
33741;DHT22;20065;48.380;10.892;2022-12-18T18:45:29;-3.40;99.90
33741;DHT22;20065;48.380;10.892;2022-12-18T18:48:15;-3.40;99.90
33741;DHT22;20065;48.380;10.892;2022-12-18T18:51:07;-3.40;99.90
33741;DHT22;20065;48.380;10.892;2022-12-18T18:53:53;-3.40;99.90
33741;DHT22;20065;48.380;10.892;2022-12-18T18:56:39;-3.40;99.90
33741;DHT22;20065;48.380;10.892;2022-12-18T18:59:26;-3.40;99.90
33741;DHT22;20065;48.380;10.892;2022-12-18T19:02:14;-3.40;99.90
33741;DHT22;20065;48.380;10.892;2022-12-18T19:05:01;-3.40;99.90
33741;DHT22;20065;48.380;10.892;2022-12-18T19:07:47;-3.40;99.90
33741;DHT22;20065;48.380;10.892;2022-12-18T19:10:33;-3.30;99.90
33741;DHT22;20065;48.380;10.892;2022-12-18T19:13:20;-3.30;99.90
33741;DHT22;20065;48.380;10.892;2022-12-18T19:16:08;-3.30;99.90
33741;DHT22;20065;48.380;10.892;2022-12-18T19:18:56;-3.60;99.90
33741;DHT22;20065;48.380;10.892;2022-12-18T19:21:43;-3.70;99.90
33741;DHT22;20065;48.380;10.892;2022-12-18T19:24:29;-3.60;99.90
33741;DHT22;20065;48.380;10.892;2022-12-18T19:27:15;-3.60;99.90
33741;DHT22;20065;48.380;10.892;2022-12-18T19:30:01;-3.60;99.90
33741;DHT22;20065;48.380;10.892;2022-12-18T19:32:47;-3.60;99.90
33741;DHT22;20065;48.380;10.892;2022-12-18T19:35:34;-3.50;99.90
33741;DHT22;20065;48.380;10.892;2022-12-18T19:38:20;-3.40;99.90